Assumption, Illinois
Current Conditions -  °F | °C
As of 12:55 PM on Friday 24 Oct 2014 (Local Time) from KTAZ Reporting Station
Haze Haze  
Wind Chill: 13°   Ceiling: 400
Heat Index: 13°   Visibility: 5mi
Dew Point: 12°   Wind: 6mph
Humidity: 94%   Direction: 250°WSW
Pressure: 30.09"   Gusts: NA
Location:  39.52°N, 89.05°W
Report Text: KTAZ 241755Z AUTO 25005KT 5SM BR OVC004 13/12 A3009 RMK AO2
Loading
Personal Weather Stations






























Interactive Weather Map
Tropical Storm Tracking
New forecast layout! Learn more

10-Day Weather Forecast

Advertisements
Track Severe Weather on mobile